Terminal Aerodrome Forecast
Issued by NWS Bismarck, ND

Home | Current Version | Previous Version | Text Only | Print | Product List | Glossary On
Versions: 1 2 3 4 5 6 7 8 9 10 11 12
702
FTUS43 KBIS 250536
TAFISN
TAF
KISN 250536Z 2506/2606 VRB05KT P6SM BKN080
     FM251300 22015KT P6SM FEW250
     FM251600 26023G32KT P6SM BKN060
     FM260100 29015KT P6SM BKN060=

USA.gov is the U.S. government's official web portal to all federal, state and local government web resources and services.